sensor_id;sensor_type;location;lat;lon;timestamp;P1;durP1;ratioP1;P2;durP2;ratioP2
12719;SDS011;6424;48.520;11.228;2023-03-01T00:02:27;19.33;;;14.33;;
12719;SDS011;6424;48.520;11.228;2023-03-01T00:05:08;21.70;;;15.03;;
12719;SDS011;6424;48.520;11.228;2023-03-01T00:07:52;17.53;;;13.90;;
12719;SDS011;6424;48.520;11.228;2023-03-01T00:10:33;20.17;;;14.13;;
12719;SDS011;6424;48.520;11.228;2023-03-01T00:13:14;18.67;;;13.67;;
12719;SDS011;6424;48.520;11.228;2023-03-01T00:15:55;18.87;;;14.00;;
12719;SDS011;6424;48.520;11.228;2023-03-01T00:18:36;22.07;;;14.30;;
12719;SDS011;6424;48.520;11.228;2023-03-01T00:21:17;17.93;;;13.53;;
12719;SDS011;6424;48.520;11.228;2023-03-01T00:23:44;20.93;;;15.10;;
12719;SDS011;6424;48.520;11.228;2023-03-01T00:26:25;19.77;;;14.23;;
12719;SDS011;6424;48.520;11.228;2023-03-01T00:29:06;19.67;;;14.63;;
12719;SDS011;6424;48.520;11.228;2023-03-01T00:31:47;20.97;;;14.70;;
12719;SDS011;6424;48.520;11.228;2023-03-01T00:34:13;18.93;;;14.50;;
12719;SDS011;6424;48.520;11.228;2023-03-01T00:36:54;19.53;;;13.93;;
12719;SDS011;6424;48.520;11.228;2023-03-01T00:39:34;17.83;;;13.73;;
12719;SDS011;6424;48.520;11.228;2023-03-01T00:42:15;19.67;;;14.17;;
12719;SDS011;6424;48.520;11.228;2023-03-01T00:44:56;22.10;;;14.07;;
12719;SDS011;6424;48.520;11.228;2023-03-01T00:47:22;20.10;;;14.60;;
12719;SDS011;6424;48.520;11.228;2023-03-01T00:50:03;19.10;;;14.40;;
12719;SDS011;6424;48.520;11.228;2023-03-01T00:52:44;22.43;;;14.43;;
12719;SDS011;6424;48.520;11.228;2023-03-01T00:55:25;18.63;;;13.90;;
12719;SDS011;6424;48.520;11.228;2023-03-01T00:58:06;20.03;;;14.60;;
12719;SDS011;6424;48.520;11.228;2023-03-01T01:00:47;19.43;;;14.00;;
12719;SDS011;6424;48.520;11.228;2023-03-01T01:03:28;17.57;;;13.17;;
12719;SDS011;6424;48.520;11.228;2023-03-01T01:06:12;21.00;;;14.37;;
12719;SDS011;6424;48.520;11.228;2023-03-01T01:08:58;19.63;;;14.33;;
12719;SDS011;6424;48.520;11.228;2023-03-01T01:11:39;19.37;;;14.90;;
12719;SDS011;6424;48.520;11.228;2023-03-01T01:14:20;23.27;;;14.97;;
12719;SDS011;6424;48.520;11.228;2023-03-01T01:17:01;17.97;;;14.03;;
12719;SDS011;6424;48.520;11.228;2023-03-01T01:19:41;20.27;;;14.37;;
12719;SDS011;6424;48.520;11.228;2023-03-01T01:22:22;21.10;;;14.80;;
12719;SDS011;6424;48.520;11.228;2023-03-01T01:25:03;20.37;;;14.33;;
12719;SDS011;6424;48.520;11.228;2023-03-01T01:27:44;20.97;;;14.83;;
12719;SDS011;6424;48.520;11.228;2023-03-01T01:30:25;19.43;;;14.73;;
12719;SDS011;6424;48.520;11.228;2023-03-01T01:33:06;22.20;;;15.53;;
12719;SDS011;6424;48.520;11.228;2023-03-01T01:35:47;21.73;;;15.20;;
12719;SDS011;6424;48.520;11.228;2023-03-01T01:38:27;20.70;;;14.60;;
12719;SDS011;6424;48.520;11.228;2023-03-01T01:41:09;23.77;;;15.17;;
12719;SDS011;6424;48.520;11.228;2023-03-01T01:44:10;19.27;;;14.63;;
12719;SDS011;6424;48.520;11.228;2023-03-01T01:47:07;19.27;;;14.40;;
12719;SDS011;6424;48.520;11.228;2023-03-01T01:49:55;23.30;;;14.80;;
12719;SDS011;6424;48.520;11.228;2023-03-01T01:52:37;20.33;;;14.27;;
12719;SDS011;6424;48.520;11.228;2023-03-01T01:55:19;21.27;;;15.57;;
12719;SDS011;6424;48.520;11.228;2023-03-01T01:58:08;20.33;;;14.63;;
12719;SDS011;6424;48.520;11.228;2023-03-01T02:00:51;23.03;;;14.87;;
12719;SDS011;6424;48.520;11.228;2023-03-01T02:03:32;20.33;;;14.63;;
12719;SDS011;6424;48.520;11.228;2023-03-01T02:09:04;18.90;;;14.17;;
12719;SDS011;6424;48.520;11.228;2023-03-01T02:11:47;20.33;;;14.60;;
12719;SDS011;6424;48.520;11.228;2023-03-01T02:14:30;21.57;;;15.30;;
12719;SDS011;6424;48.520;11.228;2023-03-01T02:17:11;19.60;;;14.80;;
12719;SDS011;6424;48.520;11.228;2023-03-01T02:22:47;18.33;;;15.00;;
12719;SDS011;6424;48.520;11.228;2023-03-01T02:30:56;20.50;;;15.30;;
12719;SDS011;6424;48.520;11.228;2023-03-01T02:33:56;21.80;;;16.50;;
12719;SDS011;6424;48.520;11.228;2023-03-01T02:36:38;22.30;;;15.73;;
12719;SDS011;6424;48.520;11.228;2023-03-01T02:39:34;20.83;;;15.60;;
12719;SDS011;6424;48.520;11.228;2023-03-01T02:42:22;23.67;;;15.03;;
12719;SDS011;6424;48.520;11.228;2023-03-01T02:45:07;20.27;;;15.37;;
12719;SDS011;6424;48.520;11.228;2023-03-01T02:47:48;21.20;;;15.20;;
12719;SDS011;6424;48.520;11.228;2023-03-01T02:53:19;23.20;;;15.67;;
12719;SDS011;6424;48.520;11.228;2023-03-01T02:56:10;21.83;;;15.13;;
12719;SDS011;6424;48.520;11.228;2023-03-01T02:58:53;22.47;;;15.10;;
12719;SDS011;6424;48.520;11.228;2023-03-01T03:01:19;22.40;;;14.90;;
12719;SDS011;6424;48.520;11.228;2023-03-01T03:03:46;23.33;;;15.93;;
12719;SDS011;6424;48.520;11.228;2023-03-01T03:06:27;22.33;;;16.13;;
12719;SDS011;6424;48.520;11.228;2023-03-01T03:09:07;23.97;;;15.37;;
12719;SDS011;6424;48.520;11.228;2023-03-01T03:11:48;21.97;;;15.77;;
12719;SDS011;6424;48.520;11.228;2023-03-01T03:14:29;19.97;;;14.10;;
12719;SDS011;6424;48.520;11.228;2023-03-01T03:16:55;20.43;;;14.63;;
12719;SDS011;6424;48.520;11.228;2023-03-01T03:19:35;18.03;;;13.83;;
12719;SDS011;6424;48.520;11.228;2023-03-01T03:22:01;24.70;;;16.03;;
12719;SDS011;6424;48.520;11.228;2023-03-01T03:24:42;22.53;;;15.73;;
12719;SDS011;6424;48.520;11.228;2023-03-01T03:27:08;20.87;;;14.93;;
12719;SDS011;6424;48.520;11.228;2023-03-01T03:29:48;23.30;;;15.63;;
12719;SDS011;6424;48.520;11.228;2023-03-01T03:32:29;23.47;;;15.27;;
12719;SDS011;6424;48.520;11.228;2023-03-01T03:35:10;22.23;;;15.13;;
12719;SDS011;6424;48.520;11.228;2023-03-01T03:37:51;19.63;;;14.53;;
12719;SDS011;6424;48.520;11.228;2023-03-01T03:40:49;23.67;;;15.70;;
12719;SDS011;6424;48.520;11.228;2023-03-01T03:43:28;24.57;;;15.73;;
12719;SDS011;6424;48.520;11.228;2023-03-01T03:46:10;21.33;;;15.27;;
12719;SDS011;6424;48.520;11.228;2023-03-01T03:48:52;22.87;;;15.57;;
12719;SDS011;6424;48.520;11.228;2023-03-01T03:51:32;22.77;;;14.33;;
12719;SDS011;6424;48.520;11.228;2023-03-01T03:54:13;22.73;;;15.17;;
12719;SDS011;6424;48.520;11.228;2023-03-01T03:56:54;21.57;;;15.73;;
12719;SDS011;6424;48.520;11.228;2023-03-01T03:59:35;21.17;;;15.33;;
12719;SDS011;6424;48.520;11.228;2023-03-01T04:02:15;23.83;;;16.37;;
12719;SDS011;6424;48.520;11.228;2023-03-01T04:05:02;20.73;;;14.30;;
12719;SDS011;6424;48.520;11.228;2023-03-01T04:07:28;24.80;;;16.67;;
12719;SDS011;6424;48.520;11.228;2023-03-01T04:10:10;21.93;;;15.33;;
12719;SDS011;6424;48.520;11.228;2023-03-01T04:12:53;23.00;;;17.17;;
12719;SDS011;6424;48.520;11.228;2023-03-01T04:15:36;22.00;;;15.17;;
12719;SDS011;6424;48.520;11.228;2023-03-01T04:18:17;21.40;;;15.33;;
12719;SDS011;6424;48.520;11.228;2023-03-01T04:20:59;22.67;;;15.83;;
12719;SDS011;6424;48.520;11.228;2023-03-01T04:23:25;25.37;;;15.83;;
12719;SDS011;6424;48.520;11.228;2023-03-01T04:26:06;21.57;;;16.13;;
12719;SDS011;6424;48.520;11.228;2023-03-01T04:28:47;21.97;;;16.37;;
12719;SDS011;6424;48.520;11.228;2023-03-01T04:31:29;23.90;;;15.87;;
12719;SDS011;6424;48.520;11.228;2023-03-01T04:34:10;21.30;;;14.93;;
12719;SDS011;6424;48.520;11.228;2023-03-01T04:36:50;28.27;;;15.80;;
12719;SDS011;6424;48.520;11.228;2023-03-01T04:39:31;22.73;;;15.57;;
12719;SDS011;6424;48.520;11.228;2023-03-01T04:42:13;22.03;;;16.33;;
12719;SDS011;6424;48.520;11.228;2023-03-01T04:44:54;23.70;;;16.43;;
12719;SDS011;6424;48.520;11.228;2023-03-01T04:47:35;22.57;;;15.60;;
12719;SDS011;6424;48.520;11.228;2023-03-01T04:50:18;23.63;;;16.43;;
12719;SDS011;6424;48.520;11.228;2023-03-01T04:53:03;23.30;;;16.93;;
12719;SDS011;6424;48.520;11.228;2023-03-01T04:55:44;24.73;;;17.27;;
12719;SDS011;6424;48.520;11.228;2023-03-01T04:58:26;24.47;;;15.90;;
12719;SDS011;6424;48.520;11.228;2023-03-01T05:01:08;24.20;;;16.67;;
12719;SDS011;6424;48.520;11.228;2023-03-01T05:03:55;28.53;;;17.17;;
12719;SDS011;6424;48.520;11.228;2023-03-01T05:06:35;23.97;;;16.80;;
12719;SDS011;6424;48.520;11.228;2023-03-01T05:09:16;21.47;;;15.87;;
12719;SDS011;6424;48.520;11.228;2023-03-01T05:11:57;28.07;;;16.57;;
12719;SDS011;6424;48.520;11.228;2023-03-01T05:14:38;26.80;;;17.80;;
12719;SDS011;6424;48.520;11.228;2023-03-01T05:17:19;24.43;;;16.80;;
12719;SDS011;6424;48.520;11.228;2023-03-01T05:20:00;21.53;;;15.90;;
12719;SDS011;6424;48.520;11.228;2023-03-01T05:22:41;28.83;;;17.33;;
12719;SDS011;6424;48.520;11.228;2023-03-01T05:25:07;27.17;;;19.10;;
12719;SDS011;6424;48.520;11.228;2023-03-01T05:27:48;30.00;;;20.53;;
12719;SDS011;6424;48.520;11.228;2023-03-01T05:30:13;23.97;;;16.67;;
12719;SDS011;6424;48.520;11.228;2023-03-01T05:32:55;25.23;;;17.50;;
12719;SDS011;6424;48.520;11.228;2023-03-01T05:35:35;29.07;;;18.43;;
12719;SDS011;6424;48.520;11.228;2023-03-01T05:38:16;27.77;;;18.13;;
12719;SDS011;6424;48.520;11.228;2023-03-01T05:40:58;25.77;;;18.33;;
12719;SDS011;6424;48.520;11.228;2023-03-01T05:43:38;27.53;;;17.57;;
12719;SDS011;6424;48.520;11.228;2023-03-01T05:46:21;26.30;;;18.50;;
12719;SDS011;6424;48.520;11.228;2023-03-01T05:49:04;27.67;;;18.23;;
12719;SDS011;6424;48.520;11.228;2023-03-01T05:51:49;31.27;;;19.47;;
12719;SDS011;6424;48.520;11.228;2023-03-01T05:54:31;26.73;;;18.30;;
12719;SDS011;6424;48.520;11.228;2023-03-01T05:57:13;26.37;;;17.80;;
12719;SDS011;6424;48.520;11.228;2023-03-01T05:59:54;26.87;;;17.90;;
12719;SDS011;6424;48.520;11.228;2023-03-01T06:02:35;27.20;;;18.67;;
12719;SDS011;6424;48.520;11.228;2023-03-01T06:05:16;26.00;;;17.90;;
12719;SDS011;6424;48.520;11.228;2023-03-01T06:08:01;28.67;;;19.03;;
12719;SDS011;6424;48.520;11.228;2023-03-01T06:10:42;26.33;;;18.03;;
12719;SDS011;6424;48.520;11.228;2023-03-01T06:13:23;30.10;;;17.97;;
12719;SDS011;6424;48.520;11.228;2023-03-01T06:16:05;26.53;;;17.10;;
12719;SDS011;6424;48.520;11.228;2023-03-01T06:18:31;31.37;;;18.97;;
12719;SDS011;6424;48.520;11.228;2023-03-01T06:20:57;29.03;;;19.43;;
12719;SDS011;6424;48.520;11.228;2023-03-01T06:23:38;26.60;;;17.37;;
12719;SDS011;6424;48.520;11.228;2023-03-01T06:26:18;28.10;;;18.67;;
12719;SDS011;6424;48.520;11.228;2023-03-01T06:28:59;25.57;;;17.70;;
12719;SDS011;6424;48.520;11.228;2023-03-01T06:31:40;26.07;;;18.13;;
12719;SDS011;6424;48.520;11.228;2023-03-01T06:34:21;27.37;;;17.90;;
12719;SDS011;6424;48.520;11.228;2023-03-01T06:37:01;24.73;;;17.93;;
12719;SDS011;6424;48.520;11.228;2023-03-01T06:39:45;29.13;;;18.83;;
12719;SDS011;6424;48.520;11.228;2023-03-01T06:42:25;29.33;;;19.13;;
12719;SDS011;6424;48.520;11.228;2023-03-01T06:45:06;31.17;;;20.60;;
12719;SDS011;6424;48.520;11.228;2023-03-01T06:47:33;28.37;;;17.80;;
12719;SDS011;6424;48.520;11.228;2023-03-01T06:50:15;26.70;;;18.40;;
12719;SDS011;6424;48.520;11.228;2023-03-01T06:52:41;27.03;;;18.00;;
12719;SDS011;6424;48.520;11.228;2023-03-01T06:55:24;26.30;;;17.27;;
12719;SDS011;6424;48.520;11.228;2023-03-01T06:58:05;24.93;;;17.27;;
12719;SDS011;6424;48.520;11.228;2023-03-01T07:00:46;25.37;;;16.87;;
12719;SDS011;6424;48.520;11.228;2023-03-01T07:03:26;25.90;;;18.00;;
12719;SDS011;6424;48.520;11.228;2023-03-01T07:06:07;25.83;;;16.87;;
12719;SDS011;6424;48.520;11.228;2023-03-01T07:08:48;25.70;;;17.60;;
12719;SDS011;6424;48.520;11.228;2023-03-01T07:11:29;23.60;;;16.83;;
12719;SDS011;6424;48.520;11.228;2023-03-01T07:13:55;27.80;;;17.27;;
12719;SDS011;6424;48.520;11.228;2023-03-01T07:16:36;24.20;;;16.37;;
12719;SDS011;6424;48.520;11.228;2023-03-01T07:19:17;27.97;;;17.70;;
12719;SDS011;6424;48.520;11.228;2023-03-01T07:21:57;23.23;;;16.00;;
12719;SDS011;6424;48.520;11.228;2023-03-01T07:24:23;25.40;;;17.53;;
12719;SDS011;6424;48.520;11.228;2023-03-01T07:27:04;27.97;;;18.73;;
12719;SDS011;6424;48.520;11.228;2023-03-01T07:29:45;25.40;;;16.63;;
12719;SDS011;6424;48.520;11.228;2023-03-01T07:32:26;27.13;;;17.97;;
12719;SDS011;6424;48.520;11.228;2023-03-01T07:35:06;27.20;;;17.37;;
12719;SDS011;6424;48.520;11.228;2023-03-01T07:37:47;24.47;;;17.20;;
12719;SDS011;6424;48.520;11.228;2023-03-01T07:40:28;25.47;;;16.67;;
12719;SDS011;6424;48.520;11.228;2023-03-01T07:43:09;23.37;;;17.10;;
12719;SDS011;6424;48.520;11.228;2023-03-01T07:45:50;23.93;;;16.73;;
12719;SDS011;6424;48.520;11.228;2023-03-01T07:48:32;23.47;;;15.80;;
12719;SDS011;6424;48.520;11.228;2023-03-01T07:51:13;22.43;;;17.27;;
12719;SDS011;6424;48.520;11.228;2023-03-01T07:53:54;23.57;;;17.93;;
12719;SDS011;6424;48.520;11.228;2023-03-01T07:56:35;22.83;;;16.50;;
12719;SDS011;6424;48.520;11.228;2023-03-01T07:59:01;24.83;;;17.03;;
12719;SDS011;6424;48.520;11.228;2023-03-01T08:01:26;24.10;;;16.20;;
12719;SDS011;6424;48.520;11.228;2023-03-01T08:04:08;22.10;;;15.77;;
12719;SDS011;6424;48.520;11.228;2023-03-01T08:06:34;27.43;;;16.43;;
12719;SDS011;6424;48.520;11.228;2023-03-01T08:09:00;23.03;;;15.97;;
12719;SDS011;6424;48.520;11.228;2023-03-01T08:11:41;23.33;;;16.23;;
12719;SDS011;6424;48.520;11.228;2023-03-01T08:14:22;23.87;;;16.47;;
12719;SDS011;6424;48.520;11.228;2023-03-01T08:17:03;22.23;;;16.83;;
12719;SDS011;6424;48.520;11.228;2023-03-01T08:19:43;22.83;;;16.47;;
12719;SDS011;6424;48.520;11.228;2023-03-01T08:22:24;22.07;;;16.03;;
12719;SDS011;6424;48.520;11.228;2023-03-01T08:25:05;23.87;;;16.57;;
12719;SDS011;6424;48.520;11.228;2023-03-01T08:27:46;21.50;;;15.63;;
12719;SDS011;6424;48.520;11.228;2023-03-01T08:30:27;22.90;;;16.40;;
12719;SDS011;6424;48.520;11.228;2023-03-01T08:33:08;21.17;;;16.00;;
12719;SDS011;6424;48.520;11.228;2023-03-01T08:35:49;23.70;;;15.67;;
12719;SDS011;6424;48.520;11.228;2023-03-01T08:38:29;25.23;;;15.97;;
12719;SDS011;6424;48.520;11.228;2023-03-01T08:41:10;23.10;;;15.63;;
12719;SDS011;6424;48.520;11.228;2023-03-01T08:43:51;23.60;;;17.13;;
12719;SDS011;6424;48.520;11.228;2023-03-01T08:46:39;23.30;;;16.23;;
12719;SDS011;6424;48.520;11.228;2023-03-01T08:49:07;22.13;;;16.17;;
12719;SDS011;6424;48.520;11.228;2023-03-01T08:51:49;24.03;;;16.77;;
12719;SDS011;6424;48.520;11.228;2023-03-01T08:54:30;21.40;;;16.00;;
12719;SDS011;6424;48.520;11.228;2023-03-01T08:57:11;21.77;;;16.80;;
12719;SDS011;6424;48.520;11.228;2023-03-01T08:59:52;24.17;;;16.17;;
12719;SDS011;6424;48.520;11.228;2023-03-01T09:02:36;20.53;;;15.23;;
12719;SDS011;6424;48.520;11.228;2023-03-01T09:05:01;23.50;;;15.57;;
12719;SDS011;6424;48.520;11.228;2023-03-01T09:07:42;20.77;;;15.77;;
12719;SDS011;6424;48.520;11.228;2023-03-01T09:10:23;22.67;;;14.93;;
12719;SDS011;6424;48.520;11.228;2023-03-01T09:13:04;25.27;;;16.47;;
12719;SDS011;6424;48.520;11.228;2023-03-01T09:15:45;18.87;;;14.77;;
12719;SDS011;6424;48.520;11.228;2023-03-01T09:18:10;21.57;;;15.87;;
12719;SDS011;6424;48.520;11.228;2023-03-01T09:20:51;20.53;;;16.33;;
12719;SDS011;6424;48.520;11.228;2023-03-01T09:23:35;22.83;;;15.90;;
12719;SDS011;6424;48.520;11.228;2023-03-01T09:26:19;26.37;;;16.43;;
12719;SDS011;6424;48.520;11.228;2023-03-01T09:29:02;18.33;;;14.87;;
12719;SDS011;6424;48.520;11.228;2023-03-01T09:31:43;22.90;;;14.50;;
12719;SDS011;6424;48.520;11.228;2023-03-01T09:34:23;20.10;;;14.93;;
12719;SDS011;6424;48.520;11.228;2023-03-01T09:37:04;22.33;;;15.50;;
12719;SDS011;6424;48.520;11.228;2023-03-01T09:39:45;22.90;;;15.50;;
12719;SDS011;6424;48.520;11.228;2023-03-01T09:42:27;20.33;;;15.00;;
12719;SDS011;6424;48.520;11.228;2023-03-01T09:45:06;24.00;;;14.80;;
12719;SDS011;6424;48.520;11.228;2023-03-01T09:47:55;20.03;;;14.83;;
12719;SDS011;6424;48.520;11.228;2023-03-01T09:50:38;17.77;;;13.60;;
12719;SDS011;6424;48.520;11.228;2023-03-01T09:53:31;18.60;;;14.50;;
12719;SDS011;6424;48.520;11.228;2023-03-01T09:56:22;20.67;;;15.10;;
12719;SDS011;6424;48.520;11.228;2023-03-01T10:05:47;17.63;;;13.30;;
12719;SDS011;6424;48.520;11.228;2023-03-01T10:10:51;19.03;;;13.87;;
12719;SDS011;6424;48.520;11.228;2023-03-01T10:16:43;20.53;;;14.20;;
12719;SDS011;6424;48.520;11.228;2023-03-01T10:19:42;20.20;;;14.57;;
12719;SDS011;6424;48.520;11.228;2023-03-01T10:22:25;19.63;;;13.23;;
12719;SDS011;6424;48.520;11.228;2023-03-01T10:25:08;17.83;;;13.70;;
12719;SDS011;6424;48.520;11.228;2023-03-01T10:27:55;21.53;;;15.10;;
12719;SDS011;6424;48.520;11.228;2023-03-01T10:30:50;17.83;;;14.37;;
12719;SDS011;6424;48.520;11.228;2023-03-01T10:33:33;17.20;;;14.53;;
12719;SDS011;6424;48.520;11.228;2023-03-01T10:36:16;19.33;;;14.90;;
12719;SDS011;6424;48.520;11.228;2023-03-01T10:38:57;17.43;;;14.30;;
12719;SDS011;6424;48.520;11.228;2023-03-01T10:41:51;20.83;;;14.13;;
12719;SDS011;6424;48.520;11.228;2023-03-01T10:50:05;18.60;;;14.57;;
12719;SDS011;6424;48.520;11.228;2023-03-01T10:52:59;17.87;;;13.83;;
12719;SDS011;6424;48.520;11.228;2023-03-01T10:55:43;18.80;;;14.20;;
12719;SDS011;6424;48.520;11.228;2023-03-01T10:58:24;19.17;;;13.87;;
12719;SDS011;6424;48.520;11.228;2023-03-01T11:06:48;17.97;;;13.77;;
12719;SDS011;6424;48.520;11.228;2023-03-01T11:09:39;20.90;;;14.40;;
12719;SDS011;6424;48.520;11.228;2023-03-01T11:12:20;20.27;;;14.20;;
12719;SDS011;6424;48.520;11.228;2023-03-01T11:15:01;18.60;;;14.43;;
12719;SDS011;6424;48.520;11.228;2023-03-01T11:17:29;19.27;;;14.67;;
12719;SDS011;6424;48.520;11.228;2023-03-01T11:22:54;17.47;;;14.20;;
12719;SDS011;6424;48.520;11.228;2023-03-01T11:25:37;17.07;;;13.63;;
12719;SDS011;6424;48.520;11.228;2023-03-01T11:28:20;21.03;;;13.90;;
12719;SDS011;6424;48.520;11.228;2023-03-01T11:31:03;21.20;;;13.90;;
12719;SDS011;6424;48.520;11.228;2023-03-01T11:36:42;18.40;;;14.40;;
12719;SDS011;6424;48.520;11.228;2023-03-01T11:39:34;16.97;;;13.70;;
12719;SDS011;6424;48.520;11.228;2023-03-01T11:42:41;17.90;;;14.30;;
12719;SDS011;6424;48.520;11.228;2023-03-01T11:45:32;20.20;;;14.07;;
12719;SDS011;6424;48.520;11.228;2023-03-01T11:48:40;18.70;;;14.10;;
12719;SDS011;6424;48.520;11.228;2023-03-01T11:51:29;15.80;;;13.20;;
12719;SDS011;6424;48.520;11.228;2023-03-01T11:54:54;17.07;;;13.07;;
12719;SDS011;6424;48.520;11.228;2023-03-01T11:57:47;17.53;;;13.50;;
12719;SDS011;6424;48.520;11.228;2023-03-01T12:09:14;18.73;;;14.30;;
12719;SDS011;6424;48.520;11.228;2023-03-01T12:32:39;17.60;;;13.87;;
12719;SDS011;6424;48.520;11.228;2023-03-01T12:47:44;17.60;;;13.80;;
12719;SDS011;6424;48.520;11.228;2023-03-01T12:50:43;16.07;;;13.03;;
12719;SDS011;6424;48.520;11.228;2023-03-01T12:53:34;18.23;;;13.20;;
12719;SDS011;6424;48.520;11.228;2023-03-01T12:56:22;20.73;;;14.13;;
12719;SDS011;6424;48.520;11.228;2023-03-01T12:59:11;17.77;;;13.77;;
12719;SDS011;6424;48.520;11.228;2023-03-01T13:05:23;18.83;;;15.27;;
12719;SDS011;6424;48.520;11.228;2023-03-01T13:08:20;17.37;;;14.63;;
12719;SDS011;6424;48.520;11.228;2023-03-01T13:11:20;17.17;;;12.83;;
12719;SDS011;6424;48.520;11.228;2023-03-01T13:17:01;19.50;;;13.83;;
12719;SDS011;6424;48.520;11.228;2023-03-01T13:19:42;18.47;;;14.37;;
12719;SDS011;6424;48.520;11.228;2023-03-01T13:22:37;17.23;;;12.97;;
12719;SDS011;6424;48.520;11.228;2023-03-01T13:25:19;20.20;;;14.30;;
12719;SDS011;6424;48.520;11.228;2023-03-01T13:34:00;16.03;;;13.23;;
12719;SDS011;6424;48.520;11.228;2023-03-01T13:39:27;19.77;;;13.67;;
12719;SDS011;6424;48.520;11.228;2023-03-01T13:42:30;16.77;;;13.17;;
12719;SDS011;6424;48.520;11.228;2023-03-01T13:48:02;15.80;;;13.50;;
12719;SDS011;6424;48.520;11.228;2023-03-01T13:50:54;17.60;;;13.13;;
12719;SDS011;6424;48.520;11.228;2023-03-01T13:53:42;21.30;;;13.10;;
12719;SDS011;6424;48.520;11.228;2023-03-01T13:56:26;15.53;;;12.50;;
12719;SDS011;6424;48.520;11.228;2023-03-01T14:01:43;21.20;;;15.57;;
12719;SDS011;6424;48.520;11.228;2023-03-01T14:04:42;19.33;;;13.67;;
12719;SDS011;6424;48.520;11.228;2023-03-01T14:07:23;14.67;;;12.43;;
12719;SDS011;6424;48.520;11.228;2023-03-01T14:10:05;15.90;;;12.63;;
12719;SDS011;6424;48.520;11.228;2023-03-01T14:12:50;15.83;;;12.93;;
12719;SDS011;6424;48.520;11.228;2023-03-01T14:15:54;14.90;;;12.03;;
12719;SDS011;6424;48.520;11.228;2023-03-01T14:21:44;15.57;;;11.97;;
12719;SDS011;6424;48.520;11.228;2023-03-01T14:24:26;19.63;;;13.77;;
12719;SDS011;6424;48.520;11.228;2023-03-01T14:27:11;14.17;;;12.40;;
12719;SDS011;6424;48.520;11.228;2023-03-01T14:30:00;14.77;;;11.80;;
12719;SDS011;6424;48.520;11.228;2023-03-01T14:32:43;16.23;;;11.90;;
12719;SDS011;6424;48.520;11.228;2023-03-01T14:35:38;16.40;;;12.57;;
12719;SDS011;6424;48.520;11.228;2023-03-01T14:38:20;16.53;;;12.60;;
12719;SDS011;6424;48.520;11.228;2023-03-01T14:40:56;12.97;;;11.57;;
12719;SDS011;6424;48.520;11.228;2023-03-01T14:43:45;14.07;;;11.23;;
12719;SDS011;6424;48.520;11.228;2023-03-01T14:46:36;15.37;;;12.70;;
12719;SDS011;6424;48.520;11.228;2023-03-01T14:49:20;17.50;;;12.10;;
12719;SDS011;6424;48.520;11.228;2023-03-01T14:52:20;18.83;;;13.17;;
12719;SDS011;6424;48.520;11.228;2023-03-01T14:55:04;16.33;;;12.40;;
12719;SDS011;6424;48.520;11.228;2023-03-01T14:57:42;14.00;;;11.83;;
12719;SDS011;6424;48.520;11.228;2023-03-01T15:00:28;13.80;;;11.80;;
12719;SDS011;6424;48.520;11.228;2023-03-01T15:03:12;17.20;;;12.73;;
12719;SDS011;6424;48.520;11.228;2023-03-01T15:05:57;17.63;;;12.30;;
12719;SDS011;6424;48.520;11.228;2023-03-01T15:08:47;16.37;;;13.07;;
12719;SDS011;6424;48.520;11.228;2023-03-01T15:11:31;14.37;;;12.27;;
12719;SDS011;6424;48.520;11.228;2023-03-01T15:20:16;15.90;;;12.23;;
12719;SDS011;6424;48.520;11.228;2023-03-01T15:22:58;15.00;;;12.60;;
12719;SDS011;6424;48.520;11.228;2023-03-01T15:25:43;16.33;;;12.37;;
12719;SDS011;6424;48.520;11.228;2023-03-01T15:28:29;16.00;;;12.33;;
12719;SDS011;6424;48.520;11.228;2023-03-01T15:31:19;18.97;;;12.40;;
12719;SDS011;6424;48.520;11.228;2023-03-01T15:37:04;18.30;;;13.37;;
12719;SDS011;6424;48.520;11.228;2023-03-01T15:46:34;16.77;;;12.37;;
12719;SDS011;6424;48.520;11.228;2023-03-01T15:52:35;18.33;;;13.47;;
12719;SDS011;6424;48.520;11.228;2023-03-01T15:55:25;21.67;;;14.73;;
12719;SDS011;6424;48.520;11.228;2023-03-01T15:58:15;16.10;;;13.17;;
12719;SDS011;6424;48.520;11.228;2023-03-01T16:01:01;18.07;;;13.27;;
12719;SDS011;6424;48.520;11.228;2023-03-01T16:03:42;17.53;;;12.07;;
12719;SDS011;6424;48.520;11.228;2023-03-01T16:06:24;18.73;;;12.67;;
12719;SDS011;6424;48.520;11.228;2023-03-01T16:09:05;25.50;;;15.90;;
12719;SDS011;6424;48.520;11.228;2023-03-01T16:11:46;30.20;;;17.87;;
12719;SDS011;6424;48.520;11.228;2023-03-01T16:14:13;26.63;;;16.20;;
12719;SDS011;6424;48.520;11.228;2023-03-01T16:16:54;22.00;;;14.80;;
12719;SDS011;6424;48.520;11.228;2023-03-01T16:19:36;20.17;;;13.60;;
12719;SDS011;6424;48.520;11.228;2023-03-01T16:22:05;18.63;;;13.60;;
12719;SDS011;6424;48.520;11.228;2023-03-01T16:24:31;19.57;;;13.00;;
12719;SDS011;6424;48.520;11.228;2023-03-01T16:27:12;20.43;;;14.03;;
12719;SDS011;6424;48.520;11.228;2023-03-01T16:29:55;21.13;;;14.67;;
12719;SDS011;6424;48.520;11.228;2023-03-01T16:32:39;23.33;;;16.13;;
12719;SDS011;6424;48.520;11.228;2023-03-01T16:35:07;23.50;;;15.53;;
12719;SDS011;6424;48.520;11.228;2023-03-01T16:37:50;22.77;;;15.17;;
12719;SDS011;6424;48.520;11.228;2023-03-01T16:40:19;21.57;;;15.73;;
12719;SDS011;6424;48.520;11.228;2023-03-01T16:43:01;22.63;;;15.90;;
12719;SDS011;6424;48.520;11.228;2023-03-01T16:45:42;20.23;;;14.97;;
12719;SDS011;6424;48.520;11.228;2023-03-01T16:48:25;21.07;;;16.17;;
12719;SDS011;6424;48.520;11.228;2023-03-01T16:51:06;20.27;;;15.93;;
12719;SDS011;6424;48.520;11.228;2023-03-01T16:53:48;21.53;;;15.43;;
12719;SDS011;6424;48.520;11.228;2023-03-01T16:56:29;23.37;;;15.17;;
12719;SDS011;6424;48.520;11.228;2023-03-01T16:58:57;20.23;;;15.57;;
12719;SDS011;6424;48.520;11.228;2023-03-01T17:01:38;19.63;;;15.20;;
12719;SDS011;6424;48.520;11.228;2023-03-01T17:04:20;22.53;;;14.70;;
12719;SDS011;6424;48.520;11.228;2023-03-01T17:06:46;20.50;;;14.67;;
12719;SDS011;6424;48.520;11.228;2023-03-01T17:09:28;20.20;;;14.67;;
12719;SDS011;6424;48.520;11.228;2023-03-01T17:12:11;22.37;;;15.07;;
12719;SDS011;6424;48.520;11.228;2023-03-01T17:14:53;24.50;;;15.87;;
12719;SDS011;6424;48.520;11.228;2023-03-01T17:17:34;21.40;;;16.07;;
12719;SDS011;6424;48.520;11.228;2023-03-01T17:20:14;24.00;;;14.83;;
12719;SDS011;6424;48.520;11.228;2023-03-01T17:22:55;19.80;;;14.83;;
12719;SDS011;6424;48.520;11.228;2023-03-01T17:25:40;24.47;;;16.40;;
12719;SDS011;6424;48.520;11.228;2023-03-01T17:28:22;19.13;;;14.67;;
12719;SDS011;6424;48.520;11.228;2023-03-01T17:31:05;20.13;;;14.23;;
12719;SDS011;6424;48.520;11.228;2023-03-01T17:33:31;20.17;;;15.87;;
12719;SDS011;6424;48.520;11.228;2023-03-01T17:36:12;22.90;;;16.57;;
12719;SDS011;6424;48.520;11.228;2023-03-01T17:38:53;27.10;;;18.53;;
12719;SDS011;6424;48.520;11.228;2023-03-01T17:41:33;25.13;;;17.50;;
12719;SDS011;6424;48.520;11.228;2023-03-01T17:44:14;25.53;;;18.30;;
12719;SDS011;6424;48.520;11.228;2023-03-01T17:46:55;24.67;;;17.57;;
12719;SDS011;6424;48.520;11.228;2023-03-01T17:49:36;23.60;;;17.10;;
12719;SDS011;6424;48.520;11.228;2023-03-01T17:52:16;23.33;;;15.50;;
12719;SDS011;6424;48.520;11.228;2023-03-01T17:54:57;23.67;;;16.77;;